Airfield :
LOGIN :

Register | Disclaimer

   EN    FR    IT 

 










Legend :    VFR   Marginal VFR   IFR   Intensive IFR   Very Intensive IFR
Visi :
Ceiling :
>= 8 km
>= 3000ft
5 to 8 km
1000 to 3000 ft
1500m to 5 km
500 to 1000 ft
800 to 1500m
200 to 500 ft
< 800m
< 200 ft
Symbols :   Thunderstorms  Fog  Heavy snow  Heavy precipitations  Wind > 20 kt
SIGMETs :     Misc.  Thunderstorms  Icing  Turbulence  Mountain Waves  Volcanic Ashes







- Airport Elevation : 336 ft
- IATA code : GCI
- Download approach charts


EGJB - Guernsey

CURRENT METAR :
  • 170550Z 23016KT 0400 R27/0400 FG OVC000 17/17 Q1013

EXPIRED METARs :
  • 170520Z 23015KT 0200 R27/0325 FG OVC000 17/17 Q1013
  • 170450Z 24015KT 0200 -DZ FG OVC000 17/17 Q1013
  • 170420Z 23016KT 0200 -DZ FG OVC000 18/18 Q1012
  • 170350Z 23015KT 0200 -DZ FG OVC000 18/18 Q1012
  • 170320Z 22013KT 0200 FG OVC000 18/18 Q1012
  • 170250Z 20015KT 1500 BR SCT000 BKN001 17/17 Q1013

TAF TAF EGJB
Valid from the 17 at 06:00 until the 17 at 15:00 UTC


170503Z 1706/1715 22013KT 1800 BR BKN002
TEMPO 1703/1712 0400 -RADZ OVC000
ATIS : +44 1481 238 957
No reported NOTAMs for that airfield.



MET'MAP, your aeronautical weather chart ! - Copyright ORBIFLY December 2007 - Disclaimer

ORBIFLY MET'MAP TEAM :

Programming & Development : Alexandra Zaïnal
Concept & Development : Baudouin d'Aumeries
Co-Development & Prog : Marc-Olivier Méhu
Technical & hardware support : Manuel Goepfert

Contact : metmap@orbifly.com




SOURCES & CREDITS :

   NOAA